createdAt,value
2018-04-15T00:00:33.088Z,85.00
2018-04-15T00:01:08.733Z,83.40
2018-04-15T00:01:44.144Z,78.40
2018-04-15T00:02:19.583Z,88.40
2018-04-15T00:02:54.890Z,91.80
2018-04-15T00:03:30.370Z,85.60
2018-04-15T00:04:05.939Z,84.00
2018-04-15T00:04:41.201Z,83.60
2018-04-15T00:05:16.737Z,84.30
2018-04-15T00:05:52.414Z,84.10
2018-04-15T00:06:27.798Z,81.50
2018-04-15T00:07:03.378Z,83.10
2018-04-15T00:07:39.019Z,84.20
2018-04-15T00:08:14.395Z,84.30
2018-04-15T00:08:49.723Z,84.90
2018-04-15T00:09:26.178Z,82.30
2018-04-15T00:10:01.707Z,88.40
2018-04-15T00:10:37.041Z,86.00
2018-04-15T00:11:12.581Z,79.80
2018-04-15T00:11:48.144Z,81.80
2018-04-15T00:12:23.576Z,85.10
2018-04-15T00:13:00.426Z,83.30
2018-04-15T00:13:35.625Z,86.30
2018-04-15T00:14:10.841Z,83.60
2018-04-15T00:14:46.109Z,78.80
2018-04-15T00:15:21.675Z,80.20
2018-04-15T00:15:57.210Z,81.10
2018-04-15T00:16:32.677Z,87.90
2018-04-15T00:17:08.214Z,86.00
2018-04-15T00:17:43.766Z,83.30
2018-04-15T00:18:18.973Z,85.20
2018-04-15T00:18:54.564Z,83.30
2018-04-15T00:19:29.780Z,80.10
2018-04-15T00:20:05.150Z,82.20
2018-04-15T00:20:40.733Z,86.70
2018-04-15T00:21:15.908Z,83.00
2018-04-15T00:21:51.305Z,82.00
2018-04-15T00:22:26.928Z,78.90
2018-04-15T00:23:02.450Z,81.30
2018-04-15T00:23:37.782Z,83.60
2018-04-15T00:24:12.989Z,81.70
2018-04-15T00:24:49.476Z,84.90
2018-04-15T00:25:24.910Z,79.30
2018-04-15T00:26:00.451Z,75.10
2018-04-15T00:26:37.050Z,81.60
2018-04-15T00:27:12.426Z,84.80
2018-04-15T00:27:47.850Z,77.40
2018-04-15T00:28:23.184Z,76.60
2018-04-15T00:28:58.520Z,81.00
2018-04-15T00:29:34.100Z,82.10
2018-04-15T00:30:09.466Z,80.10
2018-04-15T00:30:47.565Z,75.30
2018-04-15T00:31:22.889Z,75.90
2018-04-15T00:31:58.647Z,81.30
2018-04-15T00:32:33.800Z,80.20
2018-04-15T00:33:09.252Z,86.70
2018-04-15T00:33:45.172Z,91.60
2018-04-15T00:34:20.447Z,82.80
2018-04-15T00:34:55.878Z,81.70
2018-04-15T00:35:31.230Z,82.80
2018-04-15T00:36:06.571Z,78.90
2018-04-15T00:36:42.284Z,79.80
2018-04-15T00:37:17.768Z,79.20
2018-04-15T00:37:53.247Z,76.00
2018-04-15T00:38:28.960Z,77.70
2018-04-15T00:39:04.385Z,76.10
2018-04-15T00:39:40.101Z,77.00
2018-04-15T00:40:15.512Z,78.30
2018-04-15T00:40:52.042Z,78.00
2018-04-15T00:41:27.251Z,76.30
2018-04-15T00:42:02.430Z,79.70
2018-04-15T00:42:38.099Z,74.70
2018-04-15T00:43:13.643Z,80.50
2018-04-15T00:43:50.924Z,80.90
2018-04-15T00:44:26.220Z,77.20
2018-04-15T00:45:01.591Z,79.40
2018-04-15T00:45:37.148Z,78.40
2018-04-15T00:46:12.677Z,76.90
2018-04-15T00:46:47.691Z,79.10
2018-04-15T00:47:22.992Z,75.80
2018-04-15T00:47:58.819Z,73.70
2018-04-15T00:48:33.981Z,74.50
2018-04-15T00:49:09.317Z,73.80
2018-04-15T00:49:44.785Z,72.70
2018-04-15T00:50:20.027Z,80.00
2018-04-15T00:50:55.468Z,81.10
2018-04-15T00:51:30.871Z,80.50
2018-04-15T00:52:06.488Z,77.00
2018-04-15T00:52:45.033Z,79.80
2018-04-15T00:53:20.454Z,82.60
2018-04-15T00:53:55.711Z,81.40
2018-04-15T00:54:30.980Z,80.30
2018-04-15T00:55:06.464Z,78.20
2018-04-15T00:55:41.912Z,83.60
2018-04-15T00:56:17.328Z,75.90
2018-04-15T00:56:52.762Z,72.70
2018-04-15T00:57:28.219Z,72.40
2018-04-15T00:58:03.645Z,71.70
2018-04-15T00:58:38.888Z,75.30
2018-04-15T00:59:14.373Z,82.60
2018-04-15T00:59:49.936Z,80.40
2018-04-15T01:00:25.702Z,77.90
2018-04-15T01:01:01.331Z,78.60
2018-04-15T01:01:36.474Z,77.20
2018-04-15T01:02:12.173Z,80.70
2018-04-15T01:02:47.824Z,82.00
2018-04-15T01:03:23.310Z,79.70
2018-04-15T01:03:58.448Z,76.40
2018-04-15T01:04:33.936Z,77.40
2018-04-15T01:05:09.376Z,79.20
2018-04-15T01:05:45.789Z,75.10
2018-04-15T01:06:20.850Z,78.00
2018-04-15T01:06:56.784Z,82.60
2018-04-15T01:07:32.069Z,77.80
2018-04-15T01:08:07.187Z,79.90
2018-04-15T01:08:42.597Z,81.70
2018-04-15T01:09:17.923Z,83.20
2018-04-15T01:09:53.192Z,80.90
2018-04-15T01:10:28.734Z,78.60
2018-04-15T01:11:04.208Z,77.00
2018-04-15T01:11:39.647Z,76.20
2018-04-15T01:12:15.306Z,76.00
2018-04-15T01:12:50.719Z,77.80
2018-04-15T01:13:26.282Z,80.50
2018-04-15T01:14:01.630Z,78.90
2018-04-15T01:14:37.131Z,74.30
2018-04-15T01:15:12.499Z,75.80
2018-04-15T01:15:49.826Z,73.90
2018-04-15T01:16:25.044Z,75.90
2018-04-15T01:17:00.602Z,77.10
2018-04-15T01:17:36.122Z,78.40
2018-04-15T01:18:11.486Z,76.20
2018-04-15T01:18:47.032Z,76.20
2018-04-15T01:19:22.367Z,79.90
2018-04-15T01:19:57.698Z,82.90
2018-04-15T01:20:33.183Z,78.90
2018-04-15T01:21:08.403Z,82.80
2018-04-15T01:21:43.670Z,81.00
2018-04-15T01:22:18.988Z,77.30
2018-04-15T01:22:54.417Z,80.10
2018-04-15T01:23:29.897Z,81.40
2018-04-15T01:24:05.231Z,78.70
2018-04-15T01:24:41.750Z,77.50
2018-04-15T01:25:17.013Z,77.20
2018-04-15T01:25:52.835Z,76.50
2018-04-15T01:26:28.402Z,83.10
2018-04-15T01:27:03.964Z,84.10
2018-04-15T01:27:39.302Z,76.30
2018-04-15T01:28:14.832Z,77.90
2018-04-15T01:28:50.051Z,83.10
2018-04-15T01:29:25.486Z,83.30
2018-04-15T01:30:01.254Z,82.10
2018-04-15T01:30:37.010Z,87.60
2018-04-15T01:31:12.548Z,88.80
2018-04-15T01:31:47.884Z,81.10
2018-04-15T01:32:23.626Z,80.90
2018-04-15T01:32:58.830Z,87.80
2018-04-15T01:33:34.289Z,88.40
2018-04-15T01:34:09.622Z,83.80
2018-04-15T01:34:45.076Z,83.50
2018-04-15T01:35:20.471Z,82.90
2018-04-15T01:35:56.423Z,83.10
2018-04-15T01:36:31.773Z,82.90
2018-04-15T01:37:07.306Z,83.70
2018-04-15T01:37:42.611Z,84.80
2018-04-15T01:38:18.067Z,86.10
2018-04-15T01:38:53.421Z,82.60
2018-04-15T01:39:28.793Z,84.60
2018-04-15T01:40:04.138Z,79.90
2018-04-15T01:40:40.708Z,84.10
2018-04-15T01:41:16.168Z,82.30
2018-04-15T01:41:51.573Z,83.80
2018-04-15T01:42:27.205Z,91.90
2018-04-15T01:43:02.542Z,90.70
2018-04-15T01:43:38.067Z,82.80
2018-04-15T01:44:13.209Z,90.80
2018-04-15T01:44:53.951Z,85.20
2018-04-15T01:45:29.582Z,86.50
2018-04-15T01:46:05.225Z,81.30
2018-04-15T01:46:40.500Z,81.40
2018-04-15T01:47:15.871Z,84.20
2018-04-15T01:47:51.421Z,86.10
2018-04-15T01:48:27.233Z,86.50
2018-04-15T01:49:02.468Z,82.20
2018-04-15T01:49:38.428Z,83.30
2018-04-15T01:50:13.791Z,85.50
2018-04-15T01:50:50.353Z,82.90
2018-04-15T01:51:26.190Z,84.50
2018-04-15T01:52:01.549Z,94.90
2018-04-15T01:52:36.929Z,95.90
2018-04-15T01:53:12.173Z,83.10
2018-04-15T01:53:48.010Z,83.40
2018-04-15T01:54:23.457Z,87.10
2018-04-15T01:54:59.207Z,84.40
2018-04-15T01:55:34.579Z,86.90
2018-04-15T01:56:09.969Z,89.20
2018-04-15T01:56:45.473Z,87.10
2018-04-15T01:57:20.759Z,91.10
2018-04-15T01:57:56.127Z,90.10
2018-04-15T01:58:31.594Z,95.20
2018-04-15T01:59:07.041Z,95.10
2018-04-15T01:59:42.517Z,96.30
2018-04-15T02:00:17.852Z,95.00
2018-04-15T02:00:53.186Z,91.20
2018-04-15T02:01:28.549Z,99.30
2018-04-15T02:02:03.953Z,96.60
2018-04-15T02:02:39.401Z,95.90
2018-04-15T02:03:14.720Z,90.60
2018-04-15T02:03:50.152Z,82.20
2018-04-15T02:04:27.627Z,84.70
2018-04-15T02:05:03.031Z,92.30
2018-04-15T02:05:38.697Z,88.10
2018-04-15T02:06:13.950Z,85.60
2018-04-15T02:06:49.526Z,90.80
2018-04-15T02:07:25.166Z,92.90
2018-04-15T02:08:00.603Z,92.30
2018-04-15T02:08:35.955Z,93.00
2018-04-15T02:09:11.213Z,93.60
2018-04-15T02:09:47.573Z,93.80
2018-04-15T02:10:23.105Z,95.50
2018-04-15T02:10:58.935Z,93.50
2018-04-15T02:11:34.158Z,97.60
2018-04-15T02:12:09.951Z,95.60
2018-04-15T02:12:45.512Z,92.40
2018-04-15T02:13:20.853Z,99.10
2018-04-15T02:13:56.506Z,101.70
2018-04-15T02:14:32.106Z,97.20
2018-04-15T02:15:07.672Z,99.20
2018-04-15T02:15:43.291Z,102.40
2018-04-15T02:16:19.050Z,103.40
2018-04-15T02:16:54.407Z,96.50
2018-04-15T02:17:29.991Z,98.60
2018-04-15T02:18:05.163Z,103.00
2018-04-15T02:18:40.813Z,106.80
2018-04-15T02:19:16.660Z,103.60
2018-04-15T02:19:52.372Z,99.90
2018-04-15T02:20:27.806Z,95.00
2018-04-15T02:21:03.042Z,93.00
2018-04-15T02:21:38.571Z,93.60
2018-04-15T02:22:13.825Z,98.60
2018-04-15T02:22:49.265Z,103.50
2018-04-15T02:23:24.511Z,97.30
2018-04-15T02:23:59.926Z,94.40
2018-04-15T02:24:35.565Z,99.10
2018-04-15T02:25:11.292Z,108.80
2018-04-15T02:25:47.165Z,103.90
2018-04-15T02:26:22.680Z,102.70
2018-04-15T02:26:58.137Z,103.90
2018-04-15T02:27:33.647Z,102.90
2018-04-15T02:28:08.933Z,101.90
2018-04-15T02:28:45.052Z,100.20
2018-04-15T02:29:20.386Z,98.30
2018-04-15T02:29:55.820Z,104.60
2018-04-15T02:30:30.995Z,101.70
2018-04-15T02:31:06.413Z,99.50
2018-04-15T02:31:41.877Z,95.00
2018-04-15T02:32:17.173Z,106.70
2018-04-15T02:32:52.356Z,101.10
2018-04-15T02:33:27.785Z,96.90
2018-04-15T02:34:04.065Z,103.00
2018-04-15T02:34:39.591Z,104.20
2018-04-15T02:35:15.073Z,101.00
2018-04-15T02:35:52.296Z,103.30
2018-04-15T02:36:27.334Z,109.20
2018-04-15T02:37:02.986Z,114.70
2018-04-15T02:37:38.352Z,111.20
2018-04-15T02:38:13.692Z,100.60
2018-04-15T02:38:49.474Z,99.10
2018-04-15T02:39:24.598Z,96.70
2018-04-15T02:39:59.951Z,96.80
2018-04-15T02:40:35.252Z,100.50
2018-04-15T02:41:11.216Z,106.70
2018-04-15T02:41:46.958Z,102.70
2018-04-15T02:42:22.291Z,98.00
2018-04-15T02:42:57.745Z,97.80
2018-04-15T02:43:33.064Z,101.00
2018-04-15T02:44:09.102Z,108.20
2018-04-15T02:44:44.644Z,108.90
2018-04-15T02:45:20.077Z,113.90
2018-04-15T02:45:57.712Z,113.40
2018-04-15T02:46:33.130Z,110.70
2018-04-15T02:47:08.476Z,109.80
2018-04-15T02:47:43.777Z,104.90
2018-04-15T02:48:19.463Z,110.40
2018-04-15T02:48:55.207Z,105.80
2018-04-15T02:49:30.733Z,109.20
2018-04-15T02:50:06.343Z,113.90
2018-04-15T02:50:41.669Z,112.20
2018-04-15T02:51:17.098Z,105.10
2018-04-15T02:51:52.526Z,101.80
2018-04-15T02:52:27.855Z,109.10
2018-04-15T02:53:03.649Z,107.40
2018-04-15T02:53:39.153Z,99.50
2018-04-15T02:54:14.623Z,108.90
2018-04-15T02:54:49.865Z,107.90
2018-04-15T02:55:25.295Z,107.70
2018-04-15T02:56:00.523Z,106.50
2018-04-15T02:56:36.103Z,105.20
2018-04-15T02:57:11.436Z,108.40
2018-04-15T02:57:46.680Z,108.10
2018-04-15T02:58:22.105Z,100.20
2018-04-15T02:58:57.521Z,96.70
2018-04-15T02:59:32.944Z,104.70
2018-04-15T03:00:08.160Z,104.00
2018-04-15T03:00:46.895Z,109.60
2018-04-15T03:01:24.066Z,109.60
2018-04-15T03:01:59.288Z,119.10
2018-04-15T03:02:34.724Z,112.30
2018-04-15T03:03:10.088Z,108.10
2018-04-15T03:03:45.439Z,116.80
2018-04-15T03:04:21.063Z,116.50
2018-04-15T03:04:56.388Z,110.10
2018-04-15T03:05:31.820Z,107.80
2018-04-15T03:06:08.682Z,110.10
2018-04-15T03:06:44.587Z,116.80
2018-04-15T03:07:19.925Z,117.90
2018-04-15T03:07:55.527Z,116.40
2018-04-15T03:08:30.703Z,106.30
2018-04-15T03:09:06.047Z,112.60
2018-04-15T03:09:42.304Z,118.90
2018-04-15T03:10:17.823Z,116.10
2018-04-15T03:10:56.364Z,112.90
2018-04-15T03:11:31.975Z,111.50
2018-04-15T03:12:07.324Z,114.90
2018-04-15T03:12:43.215Z,120.00
2018-04-15T03:13:18.486Z,116.90
2018-04-15T03:13:55.588Z,120.20
2018-04-15T03:14:30.960Z,123.70
2018-04-15T03:15:06.298Z,115.70
2018-04-15T03:15:44.134Z,108.70
2018-04-15T03:16:19.972Z,115.20
2018-04-15T03:16:56.424Z,122.30
2018-04-15T03:17:31.551Z,123.60
2018-04-15T03:18:07.265Z,118.80
2018-04-15T03:18:42.421Z,117.20
2018-04-15T03:19:18.058Z,115.90
2018-04-15T03:19:53.470Z,118.90
2018-04-15T03:20:28.737Z,119.20
2018-04-15T03:21:03.956Z,111.00
2018-04-15T03:21:39.412Z,108.40
2018-04-15T03:22:14.642Z,103.40
2018-04-15T03:22:51.381Z,108.40
2018-04-15T03:23:26.911Z,111.00
2018-04-15T03:24:02.557Z,114.80
2018-04-15T03:24:40.147Z,122.60
2018-04-15T03:25:15.391Z,121.90
2018-04-15T03:25:50.713Z,112.80
2018-04-15T03:26:25.943Z,112.60
2018-04-15T03:27:02.071Z,122.50
2018-04-15T03:27:38.794Z,122.50
2018-04-15T03:28:14.104Z,112.50
2018-04-15T03:28:52.413Z,115.40
2018-04-15T03:29:27.879Z,112.80
2018-04-15T03:30:03.235Z,109.90
2018-04-15T03:30:40.263Z,118.00
2018-04-15T03:31:18.629Z,115.80
2018-04-15T03:31:53.888Z,109.90
2018-04-15T03:32:29.237Z,110.90
2018-04-15T03:33:04.550Z,116.50
2018-04-15T03:33:40.670Z,126.70
2018-04-15T03:34:16.019Z,126.00
2018-04-15T03:34:51.453Z,112.30
2018-04-15T03:35:27.702Z,107.90
2018-04-15T03:36:03.038Z,114.20
2018-04-15T03:36:41.444Z,114.40
2018-04-15T03:37:21.213Z,112.00
2018-04-15T03:37:59.633Z,112.30
2018-04-15T03:38:38.315Z,106.90
2018-04-15T03:39:16.833Z,122.40
2018-04-15T03:39:52.294Z,120.60
2018-04-15T03:40:27.912Z,118.60
2018-04-15T03:41:09.563Z,125.30
2018-04-15T03:41:49.235Z,125.30
2018-04-15T03:42:24.474Z,117.60
2018-04-15T03:42:59.796Z,123.70
2018-04-15T03:43:35.141Z,129.00
2018-04-15T03:44:12.476Z,118.10
2018-04-15T03:44:48.721Z,118.20
2018-04-15T03:45:24.033Z,131.90
2018-04-15T03:46:02.712Z,132.80
2018-04-15T03:46:39.150Z,118.20
2018-04-15T03:47:14.604Z,127.50
2018-04-15T03:47:50.306Z,128.00
2018-04-15T03:48:27.475Z,125.50
2018-04-15T03:49:02.892Z,123.50
2018-04-15T03:49:38.566Z,116.90
2018-04-15T03:50:13.800Z,124.00
2018-04-15T03:50:51.685Z,130.70
2018-04-15T03:51:26.978Z,128.50
2018-04-15T03:52:02.439Z,129.20
2018-04-15T03:52:37.972Z,128.40
2018-04-15T03:53:13.540Z,130.60
2018-04-15T03:53:48.798Z,139.40
2018-04-15T03:54:24.048Z,144.40
2018-04-15T03:54:59.572Z,137.20
2018-04-15T03:55:35.535Z,134.50
2018-04-15T03:56:10.853Z,135.90
2018-04-15T03:56:49.479Z,135.50
2018-04-15T03:57:24.580Z,132.20
2018-04-15T03:57:59.796Z,136.80
2018-04-15T03:58:35.311Z,143.40
2018-04-15T03:59:10.381Z,150.70
2018-04-15T03:59:45.709Z,152.00
2018-04-15T04:00:21.225Z,150.80
2018-04-15T04:00:56.461Z,148.50
2018-04-15T04:01:31.889Z,138.00
2018-04-15T04:02:07.402Z,144.20
2018-04-15T04:02:42.833Z,148.60
2018-04-15T04:03:18.156Z,139.20
2018-04-15T04:03:53.694Z,143.30
2018-04-15T04:04:29.022Z,146.50
2018-04-15T04:05:04.380Z,140.70
2018-04-15T04:05:39.622Z,143.80
2018-04-15T04:06:14.836Z,149.30
2018-04-15T04:06:50.129Z,159.30
2018-04-15T04:07:25.460Z,151.70
2018-04-15T04:08:00.567Z,152.70
2018-04-15T04:08:36.028Z,151.50
2018-04-15T04:09:11.512Z,157.00
2018-04-15T04:09:46.858Z,157.60
2018-04-15T04:10:22.293Z,161.40
2018-04-15T04:10:57.440Z,171.50
2018-04-15T04:11:32.677Z,170.00
2018-04-15T04:12:08.019Z,162.30
2018-04-15T04:12:43.538Z,169.50
2018-04-15T04:13:18.882Z,160.80
2018-04-15T04:13:54.285Z,155.60
2018-04-15T04:14:30.104Z,156.50
2018-04-15T04:15:05.509Z,158.00
2018-04-15T04:15:40.861Z,170.80
2018-04-15T04:16:16.080Z,175.60
2018-04-15T04:16:51.232Z,173.60
2018-04-15T04:17:26.566Z,174.80
2018-04-15T04:18:02.109Z,179.00
2018-04-15T04:18:37.509Z,176.90
2018-04-15T04:19:13.395Z,182.50
2018-04-15T04:19:48.720Z,175.90
2018-04-15T04:20:24.098Z,178.10
2018-04-15T04:21:00.383Z,173.20
2018-04-15T04:21:35.811Z,175.40
2018-04-15T04:22:11.223Z,167.00
2018-04-15T04:22:46.569Z,165.10
2018-04-15T04:23:21.783Z,161.80
2018-04-15T04:23:57.144Z,161.60
2018-04-15T04:24:32.696Z,159.70
2018-04-15T04:25:08.046Z,163.80
2018-04-15T04:25:43.692Z,172.40
2018-04-15T04:26:19.138Z,170.30
2018-04-15T04:26:54.351Z,174.30
2018-04-15T04:27:29.812Z,170.40
2018-04-15T04:28:05.340Z,170.30
2018-04-15T04:28:40.687Z,172.40
2018-04-15T04:29:16.115Z,174.60
2018-04-15T04:29:51.477Z,183.00
2018-04-15T04:30:26.883Z,171.40
2018-04-15T04:31:03.620Z,173.40
2018-04-15T04:31:38.734Z,170.60
2018-04-15T04:32:14.161Z,173.90
2018-04-15T04:32:49.801Z,193.00
2018-04-15T04:33:25.230Z,206.00
2018-04-15T04:34:00.357Z,191.20
2018-04-15T04:34:36.143Z,178.90
2018-04-15T04:35:11.640Z,182.90
2018-04-15T04:35:47.292Z,179.40
2018-04-15T04:36:22.716Z,174.70
2018-04-15T04:36:58.026Z,179.60
2018-04-15T04:37:33.348Z,198.50
2018-04-15T04:38:08.518Z,201.50
2018-04-15T04:38:43.945Z,186.10
2018-04-15T04:39:19.310Z,205.90
2018-04-15T04:39:54.607Z,201.60
2018-04-15T04:40:29.977Z,183.80
2018-04-15T04:41:05.800Z,178.50
2018-04-15T04:41:41.049Z,195.50
2018-04-15T04:42:16.660Z,186.70
2018-04-15T04:42:52.313Z,189.00
2018-04-15T04:43:27.636Z,190.80
2018-04-15T04:44:03.079Z,191.90
2018-04-15T04:44:38.737Z,186.20
2018-04-15T04:45:14.242Z,196.80
2018-04-15T04:45:49.653Z,199.50
2018-04-15T04:46:25.714Z,190.40
2018-04-15T04:47:01.153Z,192.70
2018-04-15T04:47:36.505Z,214.00
2018-04-15T04:48:11.834Z,207.30
2018-04-15T04:48:47.052Z,204.10
2018-04-15T04:49:22.389Z,211.20
2018-04-15T04:49:58.145Z,205.70
2018-04-15T04:50:33.384Z,226.90
2018-04-15T04:51:09.098Z,227.20
2018-04-15T04:51:44.226Z,211.70
2018-04-15T04:52:19.766Z,222.40
2018-04-15T04:52:55.068Z,214.80
2018-04-15T04:53:30.642Z,203.60
2018-04-15T04:54:06.076Z,207.70
2018-04-15T04:54:42.752Z,210.10
2018-04-15T04:55:18.182Z,205.50
2018-04-15T04:55:53.662Z,207.10
2018-04-15T04:56:29.098Z,190.90
2018-04-15T04:57:04.674Z,192.00
2018-04-15T04:57:40.382Z,202.70
2018-04-15T04:58:15.937Z,229.50
2018-04-15T04:58:51.252Z,216.30
2018-04-15T04:59:26.472Z,212.10
2018-04-15T05:00:01.837Z,204.10
2018-04-15T05:00:37.809Z,201.20
2018-04-15T05:01:13.222Z,191.80
2018-04-15T05:01:48.462Z,197.90
2018-04-15T05:02:23.772Z,214.80
2018-04-15T05:03:00.636Z,208.40
2018-04-15T05:03:35.965Z,203.70
2018-04-15T05:04:11.402Z,197.00
2018-04-15T05:04:46.760Z,198.20
2018-04-15T05:05:22.340Z,213.70
2018-04-15T05:05:57.465Z,213.50
2018-04-15T05:06:32.688Z,211.10
2018-04-15T05:07:08.228Z,212.90
2018-04-15T05:07:43.754Z,211.30
2018-04-15T05:08:18.991Z,218.70
2018-04-15T05:08:54.450Z,218.20
2018-04-15T05:09:29.849Z,213.90
2018-04-15T05:10:05.205Z,223.00
2018-04-15T05:10:41.255Z,211.00
2018-04-15T05:11:16.531Z,221.40
2018-04-15T05:11:51.861Z,211.20
2018-04-15T05:12:27.210Z,206.90
2018-04-15T05:13:02.653Z,224.50
2018-04-15T05:13:38.084Z,242.50
2018-04-15T05:14:13.517Z,238.20
2018-04-15T05:14:49.173Z,229.20
2018-04-15T05:15:24.787Z,206.90
2018-04-15T05:16:00.024Z,207.50
2018-04-15T05:16:35.633Z,220.80
2018-04-15T05:17:11.213Z,212.30
2018-04-15T05:17:46.316Z,209.90
2018-04-15T05:18:21.669Z,221.00
2018-04-15T05:18:57.073Z,224.90
2018-04-15T05:19:32.409Z,220.40
2018-04-15T05:20:07.740Z,229.60
2018-04-15T05:20:43.295Z,247.10
2018-04-15T05:21:18.714Z,243.90
2018-04-15T05:21:54.027Z,235.80
2018-04-15T05:22:29.319Z,224.10
2018-04-15T05:23:04.651Z,221.80
2018-04-15T05:23:40.075Z,233.50
2018-04-15T05:24:15.424Z,247.10
2018-04-15T05:24:50.676Z,253.20
2018-04-15T05:25:25.817Z,247.30
2018-04-15T05:26:00.946Z,239.40
2018-04-15T05:26:36.495Z,245.50
2018-04-15T05:27:12.110Z,236.50
2018-04-15T05:27:47.850Z,239.40
2018-04-15T05:28:23.198Z,242.80
2018-04-15T05:28:58.629Z,240.00
2018-04-15T05:29:34.256Z,247.10
2018-04-15T05:30:09.720Z,245.40
2018-04-15T05:30:45.215Z,241.90
2018-04-15T05:31:20.733Z,245.60
2018-04-15T05:31:56.143Z,245.30
2018-04-15T05:32:31.388Z,235.70
2018-04-15T05:33:06.924Z,256.30
2018-04-15T05:33:42.350Z,257.90
2018-04-15T05:34:17.753Z,249.40
2018-04-15T05:34:52.986Z,274.50
2018-04-15T05:35:28.291Z,274.30
2018-04-15T05:36:03.534Z,274.00
2018-04-15T05:36:39.149Z,277.10
2018-04-15T05:37:14.604Z,263.90
2018-04-15T05:37:50.116Z,266.50
2018-04-15T05:38:25.765Z,285.90
2018-04-15T05:39:01.284Z,292.20
2018-04-15T05:39:37.023Z,281.60
2018-04-15T05:40:12.746Z,282.20
2018-04-15T05:40:48.317Z,297.80
2018-04-15T05:41:23.417Z,278.50
2018-04-15T05:41:58.778Z,275.70
2018-04-15T05:42:34.091Z,284.00
2018-04-15T05:43:09.321Z,285.00
2018-04-15T05:43:44.433Z,297.10
2018-04-15T05:44:19.771Z,294.70
2018-04-15T05:44:55.170Z,286.20
2018-04-15T05:45:30.531Z,276.20
2018-04-15T05:46:05.867Z,277.00
2018-04-15T05:46:41.010Z,291.40
2018-04-15T05:47:16.329Z,275.50
2018-04-15T05:47:51.784Z,268.80
2018-04-15T05:48:27.198Z,285.30
2018-04-15T05:49:02.635Z,285.40
2018-04-15T05:49:38.148Z,303.30
2018-04-15T05:50:13.546Z,325.60
2018-04-15T05:50:48.684Z,329.40
2018-04-15T05:51:24.268Z,347.10
2018-04-15T05:52:00.857Z,338.10
2018-04-15T05:52:36.204Z,325.70
2018-04-15T05:53:11.714Z,328.90
2018-04-15T05:53:46.875Z,297.80
2018-04-15T05:54:21.879Z,301.80
2018-04-15T05:54:57.229Z,323.50
2018-04-15T05:55:32.892Z,325.90
2018-04-15T05:56:08.206Z,337.00
2018-04-15T05:56:43.530Z,334.40
2018-04-15T05:57:18.780Z,313.80
2018-04-15T05:57:54.016Z,307.40
2018-04-15T05:58:29.242Z,302.30
2018-04-15T05:59:04.545Z,287.60
2018-04-15T05:59:40.085Z,292.60
2018-04-15T06:00:15.728Z,290.20
2018-04-15T06:00:52.068Z,270.90
2018-04-15T06:01:27.172Z,290.10
2018-04-15T06:02:02.599Z,331.40
2018-04-15T06:02:38.125Z,326.00
2018-04-15T06:03:13.478Z,306.80
2018-04-15T06:03:48.900Z,312.60
2018-04-15T06:04:24.553Z,316.20
2018-04-15T06:04:59.856Z,313.00
2018-04-15T06:05:35.421Z,303.90
2018-04-15T06:06:10.738Z,294.90
2018-04-15T06:06:45.976Z,324.70
2018-04-15T06:07:21.816Z,315.90
2018-04-15T06:07:57.155Z,305.80
2018-04-15T06:08:32.383Z,283.80
2018-04-15T06:09:07.828Z,288.30
2018-04-15T06:09:43.085Z,277.40
2018-04-15T06:10:18.348Z,289.00
2018-04-15T06:10:53.681Z,303.80
2018-04-15T06:11:28.924Z,306.40
2018-04-15T06:12:04.033Z,339.30
2018-04-15T06:12:39.400Z,352.00
2018-04-15T06:13:14.593Z,335.30
2018-04-15T06:13:50.322Z,343.50
2018-04-15T06:14:25.422Z,313.90
2018-04-15T06:15:00.983Z,285.40
2018-04-15T06:15:36.207Z,303.40
2018-04-15T06:16:11.526Z,290.50
2018-04-15T06:16:46.866Z,274.20
2018-04-15T06:17:22.119Z,262.90
2018-04-15T06:17:57.636Z,243.80
2018-04-15T06:18:32.902Z,256.40
2018-04-15T06:19:08.230Z,285.70
2018-04-15T06:19:43.967Z,293.40
2018-04-15T06:20:19.386Z,288.00
2018-04-15T06:20:54.545Z,302.80
2018-04-15T06:21:30.055Z,323.30
2018-04-15T06:22:05.400Z,301.10
2018-04-15T06:22:40.758Z,294.80
2018-04-15T06:23:16.313Z,297.80
2018-04-15T06:23:51.524Z,285.10
2018-04-15T06:24:26.970Z,288.50
2018-04-15T06:25:02.378Z,300.80
2018-04-15T06:25:38.199Z,295.60
2018-04-15T06:26:13.809Z,292.70
2018-04-15T06:26:49.470Z,320.80
2018-04-15T06:27:24.993Z,321.90
2018-04-15T06:28:00.403Z,319.70
2018-04-15T06:28:35.729Z,306.00
2018-04-15T06:29:11.077Z,320.20
2018-04-15T06:29:48.010Z,297.00
2018-04-15T06:30:23.245Z,286.90
2018-04-15T06:30:58.647Z,308.10
2018-04-15T06:31:34.695Z,310.50
2018-04-15T06:32:10.098Z,312.50
2018-04-15T06:32:45.630Z,319.10
2018-04-15T06:33:21.245Z,310.50
2018-04-15T06:33:56.899Z,306.60
2018-04-15T06:34:33.136Z,303.40
2018-04-15T06:35:08.478Z,320.90
2018-04-15T06:35:47.800Z,320.20
2018-04-15T06:36:25.644Z,312.70
2018-04-15T06:37:00.946Z,295.10
2018-04-15T06:37:40.165Z,297.50
2018-04-15T06:38:15.480Z,332.60
2018-04-15T06:38:50.798Z,332.80
2018-04-15T06:39:26.609Z,319.50
2018-04-15T06:40:01.975Z,304.60
2018-04-15T06:40:38.078Z,319.00
2018-04-15T06:41:13.642Z,323.50
2018-04-15T06:41:49.477Z,305.80
2018-04-15T06:42:25.137Z,304.10
2018-04-15T06:43:00.657Z,292.80
2018-04-15T06:43:36.090Z,302.20
2018-04-15T06:44:11.315Z,295.80
2018-04-15T06:44:46.550Z,297.60
2018-04-15T06:45:21.890Z,293.20
2018-04-15T06:45:57.289Z,291.70
2018-04-15T06:46:33.685Z,301.20
2018-04-15T06:47:10.035Z,279.80
2018-04-15T06:47:48.534Z,295.40
2018-04-15T06:48:23.952Z,296.40
2018-04-15T06:48:59.255Z,275.90
2018-04-15T06:49:34.816Z,269.60
2018-04-15T06:50:10.203Z,297.40
2018-04-15T06:50:46.471Z,300.30
2018-04-15T06:51:21.949Z,291.90
2018-04-15T06:51:56.985Z,280.70
2018-04-15T06:52:32.478Z,267.10
2018-04-15T06:53:07.798Z,273.10
2018-04-15T06:53:43.299Z,272.00
2018-04-15T06:54:18.761Z,290.20
2018-04-15T06:54:54.381Z,300.00
2018-04-15T06:55:29.824Z,275.80
2018-04-15T06:56:05.266Z,261.40
2018-04-15T06:56:40.509Z,268.60
2018-04-15T06:57:16.207Z,283.30
2018-04-15T06:57:51.738Z,297.40
2018-04-15T06:58:26.844Z,308.30
2018-04-15T06:59:02.672Z,300.30
2018-04-15T06:59:37.968Z,311.40
2018-04-15T07:00:13.512Z,303.00
2018-04-15T07:00:52.849Z,292.10
2018-04-15T07:01:28.143Z,302.70
2018-04-15T07:02:03.649Z,288.80
2018-04-15T07:02:39.230Z,279.80
2018-04-15T07:03:14.453Z,289.90
2018-04-15T07:03:49.762Z,323.80
2018-04-15T07:04:25.284Z,312.80
2018-04-15T07:05:00.754Z,293.80
2018-04-15T07:05:36.960Z,292.80
2018-04-15T07:06:12.225Z,294.90
2018-04-15T07:06:47.779Z,295.90
2018-04-15T07:07:23.477Z,278.80
2018-04-15T07:07:59.298Z,294.20
2018-04-15T07:08:34.506Z,297.70
2018-04-15T07:09:09.743Z,275.70
2018-04-15T07:09:45.313Z,283.60
2018-04-15T07:10:20.438Z,302.30
2018-04-15T07:10:55.779Z,313.90
2018-04-15T07:11:31.428Z,295.30
2018-04-15T07:12:06.956Z,279.50
2018-04-15T07:12:42.180Z,280.10
2018-04-15T07:13:17.626Z,276.30
2018-04-15T07:13:53.040Z,280.50
2018-04-15T07:14:28.520Z,290.80
2018-04-15T07:15:03.805Z,286.10
2018-04-15T07:15:39.935Z,264.50
2018-04-15T07:16:15.500Z,274.20
2018-04-15T07:16:50.629Z,281.90
2018-04-15T07:17:26.258Z,274.20
2018-04-15T07:18:01.580Z,287.70
2018-04-15T07:18:36.878Z,255.90
2018-04-15T07:19:12.340Z,255.30
2018-04-15T07:19:47.668Z,283.30
2018-04-15T07:20:23.307Z,269.80
2018-04-15T07:20:59.898Z,268.30
2018-04-15T07:21:35.448Z,265.70
2018-04-15T07:22:10.744Z,258.80
2018-04-15T07:22:45.977Z,256.50
2018-04-15T07:23:21.412Z,267.70
2018-04-15T07:23:56.640Z,255.60
2018-04-15T07:24:32.067Z,253.20
2018-04-15T07:25:07.301Z,267.00
2018-04-15T07:25:43.908Z,256.60
2018-04-15T07:26:19.600Z,259.20
2018-04-15T07:26:55.018Z,261.30
2018-04-15T07:27:30.236Z,265.60
2018-04-15T07:28:05.651Z,253.30
2018-04-15T07:28:41.011Z,243.80
2018-04-15T07:29:16.187Z,237.60